Terminal Aerodrome Forecast
Issued by NWS

Home | Current Version | Previous Version | Text Only | Print | Product List | Glossary On
Versions: 1 2 3 4 5 6 7 8 9 10 11 12 13 14 15
062
FTUS45 KTFX 241123
TAFBZN
TAF
KBZN 241123Z 2412/2512 14003KT P6SM -RA OVC025
     FM241500 VRB05KT P6SM SCT025 OVC050
     FM241700 29008KT P6SM VCSH SCT035 BKN060
      TEMPO 2422/2502 -SHRA BKN035
     FM250400 VRB05KT P6SM OVC100=

USA.gov is the U.S. government's official web portal to all federal, state and local government web resources and services.